Khon Kaen, Thailand
Current Conditions -  °F | °C
As of 3:00 PM on Tuesday 27 Jan 2015 (Local Time) from VTUK Reporting Station
Haze Haze  
Wind Chill: 93°   Ceiling: Unl
Heat Index: 93°   Visibility: 3mi
Dew Point: 48°   Wind: 3mph
Humidity: 21%   Direction: NA
Pressure: 29.8"   Gusts: NA
Location:  16.4°N, 102.08°E
Report Text: VTUK 270800Z VRB03KT 5000 HZ NSC 34/09 Q1009 A2982RWY03 INFO J
Loading
Personal Weather Stations






























Interactive Weather Map New forecast layout! Learn more

10-Day Weather Forecast

Advertisements
Track Severe Weather on mobile